Time;durP1;ratioP1;P1;durP2;ratioP2;P2;SDS_P1;SDS_P2;PMS_P1;PMS_P2;Temp;Humidity;BMP_temperature;BMP_pressure;BME280_temperature;BME280_humidity;BME280_pressure;Samples;Min_cycle;Max_cycle;Signal;HPM_P1;HPM_P2
2021/06/09 00:00:58;;;;;;;5.20;2.47;;;;;;;12.66;nan;102293.97;5074471;28;20038;-47
2021/06/09 00:03:23;;;;;;;5.32;2.65;;;;;;;12.60;nan;102284.13;5070701;28;20440;-45
2021/06/09 00:05:50;;;;;;;3.33;2.05;;;;;;;12.55;nan;102290.13;5072624;28;20016;-46
2021/06/09 00:08:17;;;;;;;2.35;2.08;;;;;;;12.49;nan;102295.59;5072612;28;20582;-46
2021/06/09 00:10:43;;;;;;;4.95;2.75;;;;;;;12.46;nan;102293.34;5073917;28;20027;-46
2021/06/09 00:13:09;;;;;;;5.20;2.28;;;;;;;12.40;nan;102295.91;5073714;28;20429;-46
2021/06/09 00:15:35;;;;;;;5.03;2.15;;;;;;;12.37;nan;102296.31;5072953;28;20040;-46
2021/06/09 00:18:00;;;;;;;5.50;2.20;;;;;;;12.33;nan;102297.81;5069814;28;20416;-47
2021/06/09 00:20:27;;;;;;;6.60;2.20;;;;;;;12.30;nan;102287.50;5069994;28;20032;-46
2021/06/09 00:22:54;;;;;;;3.88;2.30;;;;;;;12.25;nan;102294.59;5053072;28;20028;-46
2021/06/09 00:25:21;;;;;;;2.80;2.25;;;;;;;12.21;nan;102285.31;5074433;28;20020;-47
2021/06/09 00:27:51;;;;;;;2.65;2.10;;;;;;;12.16;nan;102287.84;5077032;28;20051;-46
2021/06/09 00:30:21;;;;;;;14.88;2.40;;;;;;;12.15;nan;102289.72;5073746;28;20111;-47
2021/06/09 00:32:47;;;;;;;5.35;2.28;;;;;;;12.05;nan;102289.41;5073342;28;20024;-46
2021/06/09 00:35:13;;;;;;;4.15;2.35;;;;;;;12.00;nan;102287.38;5072363;28;20020;-47
2021/06/09 00:37:39;;;;;;;6.38;2.53;;;;;;;11.95;nan;102289.06;5071936;28;20526;-47
2021/06/09 00:40:08;;;;;;;3.42;2.00;;;;;;;11.93;nan;102288.47;5073778;28;20040;-47
2021/06/09 00:42:33;;;;;;;2.90;2.35;;;;;;;11.91;nan;102291.38;5072889;28;20514;-46
2021/06/09 00:44:59;;;;;;;2.88;2.30;;;;;;;11.89;nan;102290.78;5071870;28;20035;-47
2021/06/09 00:47:25;;;;;;;3.35;2.33;;;;;;;11.88;nan;102294.50;5068781;28;20547;-46
2021/06/09 00:49:51;;;;;;;2.33;2.00;;;;;;;11.87;nan;102292.06;5068882;28;20024;-47
2021/06/09 00:52:28;;;;;;;3.83;2.40;;;;;;;11.76;nan;102289.00;5074739;28;20115;-46
2021/06/09 00:54:54;;;;;;;5.10;2.63;;;;;;;11.76;nan;102293.53;5068604;28;20067;-46
2021/06/09 00:57:22;;;;;;;6.75;2.63;;;;;;;11.75;nan;102286.53;5074603;28;20549;-48
2021/06/09 00:59:48;;;;;;;9.32;2.45;;;;;;;11.68;nan;102291.94;5071392;28;20028;-46
2021/06/09 01:02:14;;;;;;;3.67;2.20;;;;;;;11.61;nan;102293.84;5067325;28;20024;-46
2021/06/09 01:04:40;;;;;;;3.10;2.80;;;;;;;11.54;nan;102287.72;5072759;28;20260;-45
2021/06/09 01:07:08;;;;;;;4.55;2.28;;;;;;;11.46;nan;102288.78;5069242;28;20693;-47
2021/06/09 01:09:33;;;;;;;4.38;2.67;;;;;;;11.40;nan;102286.16;5072187;28;20125;-46
2021/06/09 01:11:59;;;;;;;5.15;2.28;;;;;;;11.39;nan;102296.06;5071631;28;20127;-46
2021/06/09 01:14:25;;;;;;;4.70;2.38;;;;;;;11.42;nan;102281.38;5069538;28;20449;-47
2021/06/09 01:16:51;;;;;;;4.40;2.45;;;;;;;11.46;nan;102282.59;5070868;28;20027;-46
2021/06/09 01:19:21;;;;;;;13.80;3.10;;;;;;;11.43;nan;102288.38;5070124;28;20100;-46
2021/06/09 01:21:48;;;;;;;3.70;2.50;;;;;;;11.39;nan;102292.56;5071581;28;20378;-45
2021/06/09 01:24:15;;;;;;;5.55;2.97;;;;;;;11.34;nan;102295.88;5069714;28;20150;-46
2021/06/09 01:26:41;;;;;;;2.70;2.38;;;;;;;11.27;nan;102289.72;5077269;28;20020;-46
2021/06/09 01:29:07;;;;;;;5.25;2.65;;;;;;;11.20;nan;102292.44;5072976;28;20047;-47
2021/06/09 01:31:33;;;;;;;4.43;2.83;;;;;;;11.12;nan;102289.19;5053677;28;20115;-46
2021/06/09 01:34:09;;;;;;;12.75;2.50;;;;;;;11.07;nan;102287.13;5067647;28;20031;-46
2021/06/09 01:36:37;;;;;;;2.85;2.40;;;;;;;11.03;nan;102285.09;5070322;28;20063;-46
2021/06/09 01:39:08;;;;;;;4.95;2.33;;;;;;;10.97;nan;102286.78;5067465;28;20028;-47
2021/06/09 01:41:33;;;;;;;5.53;2.80;;;;;;;10.92;nan;102291.13;5074763;28;20114;-47
2021/06/09 01:43:59;;;;;;;5.43;2.83;;;;;;;10.87;nan;102283.72;5069396;28;20142;-46
2021/06/09 01:46:25;;;;;;;3.85;2.88;;;;;;;10.84;nan;102289.53;5069009;28;20054;-46
2021/06/09 01:48:52;;;;;;;5.38;2.88;;;;;;;10.76;nan;102292.41;5069824;28;20052;-47
2021/06/09 01:51:18;;;;;;;5.53;3.00;;;;;;;10.72;nan;102292.03;5072360;28;20035;-46
2021/06/09 01:53:45;;;;;;;6.60;2.75;;;;;;;10.66;nan;102284.00;5072174;28;20338;-46
2021/06/09 01:56:10;;;;;;;5.00;2.95;;;;;;;10.62;nan;102282.78;5071881;28;20036;-46
2021/06/09 01:58:36;;;;;;;4.03;2.88;;;;;;;10.58;nan;102285.06;5056500;28;20654;-46
2021/06/09 02:01:01;;;;;;;5.20;3.15;;;;;;;10.54;nan;102283.81;5067919;28;20292;-46
2021/06/09 02:03:27;;;;;;;4.45;2.88;;;;;;;10.51;nan;102277.03;5069906;28;20028;-47
2021/06/09 02:05:53;;;;;;;3.72;2.47;;;;;;;10.50;nan;102283.44;5070360;28;20028;-46
2021/06/09 02:08:18;;;;;;;5.93;2.97;;;;;;;10.43;nan;102281.81;5068433;28;20203;-46
2021/06/09 02:10:44;;;;;;;5.50;2.80;;;;;;;10.42;nan;102281.00;5072476;28;20282;-45
2021/06/09 02:13:16;;;;;;;5.82;2.70;;;;;;;10.37;nan;102275.41;5070722;28;20417;-46
2021/06/09 02:15:44;;;;;;;3.00;2.65;;;;;;;10.35;nan;102274.81;5055211;28;20024;-46
2021/06/09 02:18:11;;;;;;;5.63;3.03;;;;;;;10.31;nan;102281.63;5069681;28;20267;-47
2021/06/09 02:20:49;;;;;;;2.90;2.53;;;;;;;10.29;nan;102286.38;5071378;28;20028;-47
2021/06/09 02:23:17;;;;;;;4.63;2.83;;;;;;;10.28;nan;102282.88;5074987;28;20490;-46
2021/06/09 02:25:46;;;;;;;4.80;2.65;;;;;;;10.28;nan;102282.88;5072400;28;20173;-45
2021/06/09 02:28:12;;;;;;;11.45;3.50;;;;;;;10.27;nan;102288.44;5070587;28;20024;-45
2021/06/09 02:30:41;;;;;;;7.05;2.90;;;;;;;10.21;nan;102283.88;5071551;28;20039;-46
2021/06/09 02:33:06;;;;;;;4.50;2.72;;;;;;;10.22;nan;102291.72;5075806;28;20028;-47
2021/06/09 02:35:40;;;;;;;4.32;3.22;;;;;;;10.21;nan;102282.03;5074134;28;20028;-45
2021/06/09 02:38:07;;;;;;;4.63;2.67;;;;;;;10.19;nan;102291.28;5067521;28;20051;-47
2021/06/09 02:40:33;;;;;;;4.50;2.97;;;;;;;10.21;nan;102295.44;5070650;28;20056;-46
2021/06/09 02:42:59;;;;;;;3.42;3.03;;;;;;;10.21;nan;102286.56;5071055;28;20609;-46
2021/06/09 02:45:24;;;;;;;6.10;3.08;;;;;;;10.19;nan;102285.91;5067565;28;20628;-47
2021/06/09 02:47:58;;;;;;;4.60;2.90;;;;;;;10.15;nan;102285.53;5065335;28;20044;-46
2021/06/09 02:50:24;;;;;;;7.32;3.05;;;;;;;10.14;nan;102288.41;5070938;28;20067;-47
2021/06/09 02:53:02;;;;;;;3.38;2.75;;;;;;;10.09;nan;102280.19;5070526;28;20490;-46
2021/06/09 02:55:39;;;;;;;6.57;3.05;;;;;;;10.09;nan;102275.66;5071856;28;20548;-46
2021/06/09 02:58:13;;;;;;;4.10;2.85;;;;;;;10.07;nan;102279.56;5074255;28;20636;-46
2021/06/09 03:01:17;;;;;;;3.10;2.20;;;;;;;10.06;nan;102275.25;5047509;28;20028;-45
2021/06/09 03:03:59;;;;;;;4.25;2.78;;;;;;;10.12;nan;102269.06;5073581;28;20059;-46
2021/06/09 03:06:28;;;;;;;4.43;2.58;;;;;;;10.14;nan;102277.69;5068311;28;20035;-46
2021/06/09 03:09:07;;;;;;;5.00;3.05;;;;;;;10.10;nan;102273.78;5071731;28;20034;-46
2021/06/09 03:11:51;;;;;;;6.10;2.97;;;;;;;10.17;nan;102274.59;5070900;28;20035;-47
2021/06/09 03:17:06;;;;;;;5.78;3.50;;;;;;;10.25;nan;102269.06;5075106;28;20039;-46
2021/06/09 03:19:40;;;;;;;3.83;2.97;;;;;;;10.31;nan;102262.88;5078591;28;20051;-47
2021/06/09 03:22:20;;;;;;;3.53;2.65;;;;;;;10.39;nan;102267.16;5078268;28;20059;-45
2021/06/09 03:24:52;;;;;;;4.03;2.65;;;;;;;10.52;nan;102264.47;5078290;28;20175;-47
2021/06/09 03:27:22;;;;;;;4.85;3.42;;;;;;;10.58;nan;102267.09;5078210;28;20046;-45
2021/06/09 03:29:52;;;;;;;3.55;2.80;;;;;;;10.66;nan;102266.06;5076306;28;20024;-46
2021/06/09 03:32:24;;;;;;;6.43;3.53;;;;;;;10.75;nan;102263.97;5076697;28;20016;-46
2021/06/09 03:34:59;;;;;;;5.97;3.00;;;;;;;10.84;nan;102274.25;5078963;28;20052;-46
2021/06/09 03:37:29;;;;;;;3.65;2.90;;;;;;;10.96;nan;102271.75;5077191;28;20081;-46
2021/06/09 03:39:58;;;;;;;3.83;3.13;;;;;;;11.06;nan;102277.44;5077523;28;20039;-46
2021/06/09 03:42:32;;;;;;;4.80;3.13;;;;;;;11.16;nan;102269.78;5077302;28;20431;-46
2021/06/09 03:44:59;;;;;;;3.45;2.90;;;;;;;11.26;nan;102277.34;5074389;28;21693;-46
2021/06/09 03:47:25;;;;;;;4.25;3.10;;;;;;;11.36;nan;102266.16;5078254;28;20024;-46
2021/06/09 03:49:52;;;;;;;5.60;2.95;;;;;;;11.46;nan;102267.31;5076463;28;20107;-47
2021/06/09 03:52:19;;;;;;;5.15;2.78;;;;;;;11.56;nan;102266.00;5078742;28;20502;-46
2021/06/09 03:54:48;;;;;;;5.93;3.10;;;;;;;11.69;nan;102258.69;5076501;28;20066;-46
2021/06/09 03:57:14;;;;;;;4.63;2.60;;;;;;;11.84;nan;102262.91;5072913;28;20044;-46
2021/06/09 03:59:45;;;;;;;6.85;3.10;;;;;;;11.96;nan;102264.69;5072457;28;20398;-46
2021/06/09 04:02:10;;;;;;;5.38;3.40;;;;;;;12.10;nan;102262.69;5070097;28;20023;-45
2021/06/09 04:04:37;;;;;;;5.55;3.65;;;;;;;12.26;nan;102264.81;5072452;28;20561;-46
2021/06/09 04:07:06;;;;;;;3.83;3.17;;;;;;;12.42;nan;102263.41;5075057;28;20029;-47
2021/06/09 04:09:32;;;;;;;3.83;3.17;;;;;;;12.53;nan;102257.28;5070267;28;20236;-46
2021/06/09 04:12:00;;;;;;;5.68;3.17;;;;;;;12.68;nan;102263.09;5070864;28;20059;-47
2021/06/09 04:14:33;;;;;;;8.52;3.95;;;;;;;12.79;nan;102264.22;5069905;28;20059;-47
2021/06/09 04:17:02;;;;;;;7.82;3.50;;;;;;;12.92;nan;102263.22;5072577;28;20031;-47
2021/06/09 04:19:29;;;;;;;6.78;3.38;;;;;;;13.06;nan;102266.56;5075242;28;20175;-46
2021/06/09 04:21:54;;;;;;;4.57;3.00;;;;;;;13.18;nan;102264.78;5059800;28;20024;-46
2021/06/09 04:24:20;;;;;;;5.85;3.38;;;;;;;13.29;nan;102264.84;5075182;28;20028;-46
2021/06/09 04:26:52;;;;;;;11.75;3.38;;;;;;;13.41;nan;102262.16;5076471;28;20028;-46
2021/06/09 04:29:19;;;;;;;7.55;3.08;;;;;;;13.53;nan;102265.72;5078468;28;20024;-45
2021/06/09 04:31:47;;;;;;;6.50;3.70;;;;;;;13.68;nan;102264.47;5069532;28;20107;-46
2021/06/09 04:34:12;;;;;;;4.68;3.70;;;;;;;13.82;nan;102260.47;5073302;28;20096;-46
2021/06/09 04:36:38;;;;;;;6.55;3.17;;;;;;;13.98;nan;102264.38;5077129;28;20514;-47
2021/06/09 04:39:04;;;;;;;6.18;3.97;;;;;;;14.12;nan;102260.38;5074618;28;20085;-47
2021/06/09 04:41:30;;;;;;;7.05;3.83;;;;;;;14.27;nan;102265.31;5071492;28;20096;-46
2021/06/09 04:43:55;;;;;;;8.50;3.30;;;;;;;14.41;nan;102250.53;5074635;28;20040;-46
2021/06/09 04:46:22;;;;;;;6.18;3.58;;;;;;;14.56;nan;102253.59;5073590;28;20032;-46
2021/06/09 04:48:58;;;;;;;8.57;3.38;;;;;;;14.69;nan;102255.16;5073688;28;20032;-46
2021/06/09 04:51:29;;;;;;;7.72;3.75;;;;;;;14.84;nan;102250.09;5072289;28;20035;-47
2021/06/09 04:53:55;;;;;;;5.70;3.65;;;;;;;15.00;nan;102253.91;5071753;28;20111;-47
2021/06/09 04:56:20;;;;;;;6.20;3.88;;;;;;;15.14;nan;102260.66;5068396;28;20162;-46
2021/06/09 04:58:46;;;;;;;5.75;4.22;;;;;;;15.30;nan;102267.16;5074310;28;20104;-46
2021/06/09 05:01:11;;;;;;;6.22;3.85;;;;;;;15.43;nan;102259.56;5059888;28;20113;-46
2021/06/09 05:03:37;;;;;;;4.45;3.33;;;;;;;15.57;nan;102267.34;5069532;28;20067;-46
2021/06/09 05:06:02;;;;;;;4.75;3.90;;;;;;;15.73;nan;102260.34;5071313;28;20350;-47
2021/06/09 05:08:28;;;;;;;5.50;3.72;;;;;;;15.84;nan;102268.41;5074743;28;20036;-47
2021/06/09 05:10:53;;;;;;;4.50;3.58;;;;;;;15.97;nan;102267.22;5074050;28;20027;-47
2021/06/09 05:13:40;;;;;;;5.13;2.92;;;;;;;16.16;nan;102267.78;5068541;28;20035;-47
2021/06/09 05:16:10;;;;;;;8.05;3.15;;;;;;;16.11;nan;102262.28;5071408;28;20066;-46
2021/06/09 05:18:41;;;;;;;6.30;3.03;;;;;;;16.37;nan;102269.72;5069403;28;20025;-46
2021/06/09 05:24:32;;;;;;;4.50;3.08;;;;;;;16.78;nan;102267.56;5067406;28;20462;-47
2021/06/09 05:26:59;;;;;;;7.97;2.88;;;;;;;16.94;nan;102258.53;5073372;28;21099;-46
2021/06/09 05:29:27;;;;;;;6.07;2.90;;;;;;;16.98;nan;102256.97;5069584;28;20413;-46
2021/06/09 05:31:54;;;;;;;6.95;2.72;;;;;;;17.19;nan;102256.09;5071439;28;20054;-46
2021/06/09 05:34:21;;;;;;;3.10;2.55;;;;;;;17.32;nan;102256.75;5068899;28;20351;-46
2021/06/09 05:36:48;;;;;;;3.45;2.35;;;;;;;17.26;nan;102252.38;5071155;28;20035;-47
2021/06/09 05:39:17;;;;;;;7.35;2.72;;;;;;;17.52;nan;102260.47;5070154;28;20028;-47
2021/06/09 05:41:45;;;;;;;4.65;2.28;;;;;;;17.78;nan;102256.13;5069680;28;20067;-46
2021/06/09 05:44:15;;;;;;;2.10;1.90;;;;;;;17.80;nan;102253.97;5068821;28;20020;-46
2021/06/09 05:46:43;;;;;;;3.00;2.13;;;;;;;18.00;nan;102249.75;5071471;28;20039;-48
2021/06/09 05:49:09;;;;;;;2.33;1.85;;;;;;;18.15;nan;102257.19;5069853;28;20099;-47
2021/06/09 05:51:34;;;;;;;2.92;1.90;;;;;;;18.37;nan;102253.22;5071199;28;20028;-47
2021/06/09 05:54:00;;;;;;;5.32;1.90;;;;;;;18.50;nan;102253.84;5073312;28;20064;-47
2021/06/09 05:56:27;;;;;;;3.42;1.98;;;;;;;18.56;nan;102252.78;5068676;28;20141;-46
2021/06/09 05:58:52;;;;;;;2.05;1.70;;;;;;;18.70;nan;102246.63;5070314;28;20340;-47
2021/06/09 06:01:18;;;;;;;2.92;2.25;;;;;;;18.76;nan;102257.50;5068794;28;20455;-47
2021/06/09 06:03:45;;;;;;;4.45;1.90;;;;;;;19.00;nan;102254.03;5058135;28;20032;-47
2021/06/09 06:06:13;;;;;;;2.38;1.60;;;;;;;19.20;nan;102252.44;5068424;28;20055;-46
2021/06/09 06:08:42;;;;;;;2.13;1.83;;;;;;;19.34;nan;102253.56;5072565;28;20024;-47
2021/06/09 06:11:11;;;;;;;3.53;1.80;;;;;;;19.55;nan;102251.69;5070372;28;20028;-46
2021/06/09 06:13:37;;;;;;;2.13;1.58;;;;;;;19.74;nan;102252.75;5071309;28;20113;-47
2021/06/09 06:16:04;;;;;;;4.05;2.03;;;;;;;19.92;nan;102252.19;5070735;28;20473;-47
2021/06/09 06:18:49;;;;;;;2.92;1.52;;;;;;;20.05;nan;102252.72;5068704;28;20117;-47
2021/06/09 06:21:16;;;;;;;;;;;;;;;20.06;nan;102251.63;5072443;28;20647;-46
2021/06/09 06:23:42;;;;;;;3.47;2.08;;;;;;;20.08;nan;102254.91;5068997;28;20352;-47
2021/06/09 06:26:15;;;;;;;3.13;2.25;;;;;;;20.00;nan;102250.03;5069765;28;20043;-47
2021/06/09 06:28:41;;;;;;;2.30;2.10;;;;;;;20.28;nan;102252.13;5070937;28;20024;-47
2021/06/09 06:31:29;;;;;;;2.75;1.90;;;;;;;20.40;nan;102249.09;5070369;28;20271;-47
2021/06/09 06:33:58;;;;;;;2.40;1.80;;;;;;;20.67;nan;102254.22;5073742;28;20080;-47
2021/06/09 06:36:25;;;;;;;2.10;1.70;;;;;;;20.91;nan;102251.63;5069850;28;20032;-47
2021/06/09 06:38:51;;;;;;;4.68;2.08;;;;;;;21.14;nan;102253.66;5072452;28;20037;-47
2021/06/09 06:41:18;;;;;;;4.38;2.00;;;;;;;21.31;nan;102256.84;5068467;28;20035;-47
2021/06/09 06:43:44;;;;;;;3.92;1.90;;;;;;;21.24;nan;102256.38;5069582;28;20108;-47
2021/06/09 06:46:18;;;;;;;3.08;2.13;;;;;;;21.01;nan;102257.03;5069956;28;20503;-47
2021/06/09 06:48:46;;;;;;;2.57;1.90;;;;;;;21.12;nan;102258.59;5073621;28;20101;-47
2021/06/09 06:51:14;;;;;;;2.28;1.60;;;;;;;21.29;nan;102263.69;5074781;28;20020;-46
2021/06/09 06:53:45;;;;;;;4.03;2.10;;;;;;;21.51;nan;102261.31;5074232;28;20050;-47
2021/06/09 06:56:12;;;;;;;2.53;1.63;;;;;;;21.83;nan;102268.97;5071213;28;20270;-47
2021/06/09 06:58:39;;;;;;;2.25;1.92;;;;;;;21.88;nan;102268.09;5074436;28;20020;-48
2021/06/09 07:01:06;;;;;;;2.25;1.80;;;;;;;22.06;nan;102259.22;5075697;28;20973;-46
2021/06/09 07:03:36;;;;;;;1.92;1.70;;;;;;;22.21;nan;102258.25;5073896;28;20440;-48
2021/06/09 07:06:03;;;;;;;3.55;1.70;;;;;;;22.35;nan;102269.28;5074197;28;20036;-47
2021/06/09 07:08:29;;;;;;;3.30;1.50;;;;;;;22.42;nan;102270.56;5072094;28;20047;-47
2021/06/09 07:10:55;;;;;;;1.85;1.65;;;;;;;22.63;nan;102276.63;5073748;28;20030;-48
2021/06/09 07:13:22;;;;;;;2.45;1.65;;;;;;;22.84;nan;102274.47;5071767;28;20027;-47
2021/06/09 07:15:51;;;;;;;3.08;1.80;;;;;;;22.88;nan;102275.50;5070717;28;20281;-48
2021/06/09 07:18:18;;;;;;;3.15;1.50;;;;;;;23.09;nan;102267.81;5072360;28;20032;-47
2021/06/09 07:20:43;;;;;;;4.30;1.50;;;;;;;23.18;nan;102271.50;5074968;28;20030;-47
2021/06/09 07:23:11;;;;;;;3.40;1.58;;;;;;;23.20;nan;102270.09;5072356;28;20020;-48
2021/06/09 07:25:37;;;;;;;3.10;1.83;;;;;;;22.99;nan;102266.06;5071641;28;20554;-48
2021/06/09 07:28:05;;;;;;;2.05;1.40;;;;;;;22.85;nan;102276.09;5073337;28;20021;-48
2021/06/09 07:30:34;;;;;;;3.22;1.40;;;;;;;23.10;nan;102274.91;5070435;28;20036;-48
2021/06/09 07:33:02;;;;;;;1.75;1.33;;;;;;;23.31;nan;102269.94;5076476;28;20032;-47
2021/06/09 07:35:28;;;;;;;1.67;1.40;;;;;;;23.51;nan;102266.88;5072491;28;20025;-47
2021/06/09 07:38:01;;;;;;;2.10;1.50;;;;;;;23.61;nan;102263.19;5073718;28;20401;-47
2021/06/09 07:40:31;;;;;;;2.50;1.60;;;;;;;23.79;nan;102274.09;5073569;28;20509;-47
2021/06/09 07:43:10;;;;;;;3.17;2.00;;;;;;;23.75;nan;102273.06;5073641;28;20385;-48
2021/06/09 07:45:37;;;;;;;1.95;1.67;;;;;;;24.02;nan;102268.75;5073589;28;20039;-48
2021/06/09 07:48:05;;;;;;;1.60;1.50;;;;;;;24.17;nan;102267.66;5073590;28;20035;-48
2021/06/09 07:50:36;;;;;;;4.55;1.50;;;;;;;24.26;nan;102263.13;5071218;28;20042;-47
2021/06/09 07:53:09;;;;;;;1.73;1.52;;;;;;;24.39;nan;102262.31;5072590;28;20462;-48
2021/06/09 07:55:36;;;;;;;3.92;1.73;;;;;;;24.57;nan;102250.44;5072036;28;20056;-47
2021/06/09 07:58:04;;;;;;;4.35;1.58;;;;;;;24.67;nan;102252.16;5071074;28;20043;-48
2021/06/09 08:00:30;;;;;;;2.25;1.58;;;;;;;24.79;nan;102255.19;5075182;28;20123;-48
2021/06/09 08:02:57;;;;;;;2.08;1.38;;;;;;;24.84;nan;102254.25;5074815;28;20028;-47
2021/06/09 08:05:26;;;;;;;3.28;1.85;;;;;;;24.90;nan;102261.25;5072173;28;20418;-48
2021/06/09 08:07:53;;;;;;;3.17;1.58;;;;;;;24.99;nan;102259.41;5068793;28;20119;-48
2021/06/09 08:10:19;;;;;;;4.72;1.70;;;;;;;24.95;nan;102250.97;5070521;28;20020;-48
2021/06/09 08:12:48;;;;;;;3.92;1.80;;;;;;;25.14;nan;102258.28;5067782;28;20463;-48
2021/06/09 08:15:14;;;;;;;2.45;1.70;;;;;;;25.13;nan;102253.88;5068902;28;20446;-47
2021/06/09 08:17:44;;;;;;;2.63;1.60;;;;;;;25.22;nan;102260.25;5069754;28;20028;-48
2021/06/09 08:20:15;;;;;;;2.65;1.88;;;;;;;25.35;nan;102255.84;5069596;28;20424;-47
2021/06/09 08:22:44;;;;;;;2.90;1.30;;;;;;;25.44;nan;102259.47;5070345;28;20017;-48
2021/06/09 08:25:14;;;;;;;2.35;1.77;;;;;;;25.55;nan;102261.66;5069248;28;20106;-47
2021/06/09 08:27:41;;;;;;;1.83;1.35;;;;;;;25.55;nan;102260.84;5070942;28;20032;-49
2021/06/09 08:30:08;;;;;;;2.33;1.63;;;;;;;25.66;nan;102267.66;5069300;28;20027;-49
2021/06/09 08:32:35;;;;;;;2.50;1.80;;;;;;;25.83;nan;102267.00;5071355;28;20057;-47
2021/06/09 08:35:01;;;;;;;1.67;1.40;;;;;;;25.96;nan;102260.59;5069759;28;20020;-47
2021/06/09 08:37:27;;;;;;;1.73;1.63;;;;;;;26.16;nan;102260.03;5058632;28;20024;-48
2021/06/09 08:39:54;;;;;;;2.28;1.45;;;;;;;25.99;nan;102259.97;5068125;28;20402;-48
2021/06/09 08:42:22;;;;;;;1.30;1.20;;;;;;;26.17;nan;102260.84;5068484;28;20036;-48
2021/06/09 08:44:49;;;;;;;2.42;1.52;;;;;;;26.14;nan;102261.50;5068244;28;20031;-47
2021/06/09 08:47:16;;;;;;;3.67;1.90;;;;;;;25.93;nan;102261.25;5070474;28;20028;-49
2021/06/09 08:49:42;;;;;;;3.13;1.30;;;;;;;25.41;nan;102260.91;5069528;28;20073;-48
2021/06/09 08:52:11;;;;;;;1.65;1.30;;;;;;;25.63;nan;102260.06;5070598;28;20536;-47
2021/06/09 08:54:41;;;;;;;2.33;1.40;;;;;;;25.88;nan;102253.16;5071265;28;20394;-48
2021/06/09 08:57:07;;;;;;;2.05;1.80;;;;;;;25.92;nan;102258.81;5068711;28;20103;-47
2021/06/09 08:59:33;;;;;;;1.45;1.33;;;;;;;25.73;nan;102262.59;5071532;28;20032;-48
2021/06/09 09:01:59;;;;;;;1.48;1.30;;;;;;;25.99;nan;102259.97;5069643;28;20027;-48
2021/06/09 09:04:27;;;;;;;3.15;1.58;;;;;;;26.05;nan;102255.97;5069571;28;20377;-48
2021/06/09 09:06:52;;;;;;;2.60;2.03;;;;;;;25.55;nan;102256.16;5068353;28;20035;-49
2021/06/09 09:09:18;;;;;;;4.63;1.75;;;;;;;25.23;nan;102264.63;5070633;28;20028;-48
2021/06/09 09:11:43;;;;;;;1.90;1.75;;;;;;;25.16;nan;102256.03;5068091;28;20020;-46
2021/06/09 09:14:09;;;;;;;2.05;1.40;;;;;;;25.35;nan;102250.38;5069515;28;20036;-48
2021/06/09 09:16:35;;;;;;;4.20;1.70;;;;;;;25.39;nan;102252.16;5067734;28;20055;-48
2021/06/09 09:19:02;;;;;;;1.77;1.60;;;;;;;25.92;nan;102253.31;5068982;28;20359;-48
2021/06/09 09:21:39;;;;;;;2.45;1.60;;;;;;;26.33;nan;102244.75;5068623;28;20044;-48
2021/06/09 09:24:08;;;;;;;3.65;1.67;;;;;;;26.71;nan;102256.03;5068319;28;20111;-47
2021/06/09 09:26:35;;;;;;;2.13;1.35;;;;;;;26.93;nan;102260.56;5071118;28;20033;-48
2021/06/09 09:29:09;;;;;;;2.42;1.55;;;;;;;27.14;nan;102255.28;5069527;28;20055;-46
2021/06/09 09:31:53;;;;;;;3.20;1.48;;;;;;;27.20;nan;102260.28;5069273;28;20387;-47
2021/06/09 09:34:37;;;;;;;2.38;1.52;;;;;;;27.30;nan;102265.47;5068891;28;20016;-48
2021/06/09 09:37:15;;;;;;;2.22;1.67;;;;;;;27.61;nan;102254.25;5067191;28;20020;-48
2021/06/09 09:39:44;;;;;;;3.53;1.58;;;;;;;27.34;nan;102263.69;5068658;28;20029;-48
2021/06/09 09:42:33;;;;;;;2.90;1.50;;;;;;;27.23;nan;102259.66;5067609;28;20082;-50
2021/06/09 09:45:30;;;;;;;1.65;1.27;;;;;;;27.64;nan;102250.84;5069236;28;20035;-48
2021/06/09 09:48:17;;;;;;;1.73;1.23;;;;;;;26.69;nan;102261.84;5069375;28;20502;-48
2021/06/09 09:50:48;;;;;;;3.97;1.80;;;;;;;26.34;nan;102265.59;5057725;28;20028;-51
2021/06/09 09:53:18;;;;;;;3.45;1.63;;;;;;;26.76;nan;102266.91;5068828;28;20374;-50
2021/06/09 09:56:02;;;;;;;1.70;1.15;;;;;;;27.28;nan;102256.72;5067294;28;20033;-52
2021/06/09 09:58:28;;;;;;;1.97;1.50;;;;;;;27.45;nan;102239.38;5067311;28;20086;-49
2021/06/09 10:01:17;;;;;;;1.52;1.40;;;;;;;27.94;nan;102242.69;5067856;28;20027;-51
2021/06/09 10:03:48;;;;;;;2.35;1.42;;;;;;;28.28;nan;102239.00;5069025;28;20178;-51
2021/06/09 10:06:40;;;;;;;3.00;1.23;;;;;;;28.63;nan;102252.56;5066746;28;20035;-50
2021/06/09 10:09:24;;;;;;;1.50;1.20;;;;;;;28.10;nan;102242.94;5048217;28;20031;-50
2021/06/09 10:11:58;;;;;;;1.50;1.40;;;;;;;28.37;nan;102230.66;5065004;28;20139;-52
2021/06/09 10:14:26;;;;;;;;;;;;;;;27.51;nan;102237.28;5066891;28;20111;-50
2021/06/09 10:17:13;;;;;;;2.00;1.30;;;;;;;27.21;nan;102234.41;5068833;28;19920;-49
2021/06/09 10:19:48;;;;;;;1.63;1.52;;;;;;;27.00;nan;102241.69;5069341;28;20035;-48
2021/06/09 10:22:21;;;;;;;2.13;1.83;;;;;;;26.40;nan;102239.66;5070624;28;20640;-48
2021/06/09 10:24:57;;;;;;;3.03;1.70;;;;;;;27.42;nan;102222.72;5070341;28;19917;-51
2021/06/09 10:28:16;;;;;;;2.25;1.40;;;;;;;28.06;nan;102228.22;5050612;28;20044;-52
2021/06/09 10:30:44;;;;;;;2.47;1.45;;;;;;;28.62;nan;102228.91;5036186;28;20045;-49
2021/06/09 10:33:09;;;;;;;1.63;1.33;;;;;;;28.72;nan;102231.25;5068897;28;20555;-48
2021/06/09 10:35:41;;;;;;;4.53;1.70;;;;;;;27.44;nan;102224.00;5069692;28;20071;-48
2021/06/09 10:38:07;;;;;;;3.80;1.40;;;;;;;27.79;nan;102233.00;5071161;28;20401;-48
2021/06/09 10:40:34;;;;;;;2.22;1.60;;;;;;;28.55;nan;102227.50;5071058;28;20029;-48
2021/06/09 10:43:01;;;;;;;1.92;1.23;;;;;;;29.31;nan;102222.81;5058217;28;20024;-49
2021/06/09 10:45:29;;;;;;;1.98;1.30;;;;;;;29.83;nan;102214.00;5068361;28;20714;-48
2021/06/09 10:47:57;;;;;;;3.95;1.92;;;;;;;29.69;nan;102209.59;5069336;28;20032;-49
2021/06/09 10:50:23;;;;;;;1.65;1.10;;;;;;;30.00;nan;102219.31;5068983;28;20069;-47
2021/06/09 10:52:49;;;;;;;2.17;1.33;;;;;;;29.95;nan;102216.75;5068577;28;20115;-48
2021/06/09 10:55:16;;;;;;;3.75;1.30;;;;;;;30.35;nan;102217.72;5070581;28;20025;-48
2021/06/09 10:57:42;;;;;;;1.85;1.40;;;;;;;30.66;nan;102219.84;5069306;28;20020;-49
2021/06/09 11:00:11;;;;;;;2.67;1.30;;;;;;;30.93;nan;102223.00;5068438;28;20031;-47
2021/06/09 11:02:38;;;;;;;2.40;1.30;;;;;;;29.78;nan;102218.56;5069521;28;20048;-49
2021/06/09 11:05:07;;;;;;;1.20;1.10;;;;;;;29.53;nan;102218.88;5072951;28;20103;-48
2021/06/09 11:07:39;;;;;;;4.13;1.67;;;;;;;29.51;nan;102215.66;5073205;28;20103;-48
2021/06/09 11:10:33;;;;;;;1.52;1.20;;;;;;;29.78;nan;102217.78;5059919;28;20393;-48
2021/06/09 11:12:59;;;;;;;2.05;1.70;;;;;;;30.38;nan;102207.91;5070413;28;20031;-47
2021/06/09 11:15:34;;;;;;;1.83;1.33;;;;;;;30.05;nan;102199.75;5070618;28;20226;-48
2021/06/09 11:18:09;;;;;;;2.40;1.00;;;;;;;29.58;nan;102196.56;5073794;28;20063;-48
2021/06/09 11:20:38;;;;;;;2.58;1.42;;;;;;;28.70;nan;102205.94;5075815;28;20024;-48
2021/06/09 11:23:20;;;;;;;1.58;1.38;;;;;;;28.63;nan;102206.50;5075289;28;20478;-49
2021/06/09 11:25:47;;;;;;;1.33;1.10;;;;;;;29.44;nan;102197.69;5074573;28;20028;-48
2021/06/09 11:28:14;;;;;;;3.53;1.40;;;;;;;30.12;nan;102190.88;5074421;28;20020;-49
2021/06/09 11:31:09;;;;;;;3.90;1.75;;;;;;;30.22;nan;102188.47;5070876;28;20020;-49
2021/06/09 11:33:38;;;;;;;1.45;1.35;;;;;;;29.76;nan;102190.50;5068256;28;20067;-48
2021/06/09 11:36:19;;;;;;;3.10;1.45;;;;;;;30.27;nan;102195.69;5070431;28;20481;-49
2021/06/09 11:38:47;;;;;;;1.50;1.38;;;;;;;30.69;nan;102185.16;5069930;28;20043;-48
2021/06/09 11:41:15;;;;;;;1.95;1.50;;;;;;;30.16;nan;102181.53;5068568;28;20502;-47
2021/06/09 11:43:49;;;;;;;3.03;1.58;;;;;;;30.43;nan;102187.50;5069421;28;20036;-49
2021/06/09 11:46:17;;;;;;;4.38;1.42;;;;;;;30.09;nan;102173.03;5069198;28;20056;-48
2021/06/09 11:49:04;;;;;;;3.70;1.60;;;;;;;29.75;nan;102174.25;5071309;28;20032;-49
2021/06/09 11:51:34;;;;;;;3.97;1.30;;;;;;;30.09;nan;102173.03;5070896;28;20033;-49
2021/06/09 11:54:04;;;;;;;2.47;1.35;;;;;;;30.58;nan;102176.50;5067415;28;20287;-48
2021/06/09 11:56:41;;;;;;;1.88;1.35;;;;;;;29.96;nan;102165.84;5066150;28;20505;-48
2021/06/09 11:59:20;;;;;;;1.55;1.23;;;;;;;30.42;nan;102172.06;5055985;28;20036;-48